createdAt,value
2015-10-31T00:00:10.915Z,8.2
2015-10-31T00:01:10.871Z,8.3
2015-10-31T00:02:10.828Z,8.3
2015-10-31T00:03:10.768Z,8.2
2015-10-31T00:04:10.723Z,8.2
2015-10-31T00:05:10.664Z,8.2
2015-10-31T00:06:10.604Z,8.2
2015-10-31T00:07:10.559Z,8.1
2015-10-31T00:08:10.516Z,8.2
2015-10-31T00:09:10.456Z,8.2
2015-10-31T00:10:10.396Z,8.3
2015-10-31T00:11:10.352Z,8.4
2015-10-31T00:12:10.293Z,8.4
2015-10-31T00:13:10.248Z,8.3
2015-10-31T00:14:10.189Z,8.3
2015-10-31T00:15:10.144Z,8.4
2015-10-31T00:16:10.084Z,8.3
2015-10-31T00:17:10.040Z,8.3
2015-10-31T00:18:09.981Z,8.3
2015-10-31T00:19:09.920Z,8.3
2015-10-31T00:20:09.876Z,8.3
2015-10-31T00:21:09.833Z,8.3
2015-10-31T00:22:09.772Z,8.3
2015-10-31T00:23:09.713Z,8.3
2015-10-31T00:24:09.669Z,8.3
2015-10-31T00:25:09.608Z,8.4
2015-10-31T00:26:09.564Z,8.4
2015-10-31T00:27:09.504Z,8.4
2015-10-31T00:28:09.460Z,8.4
2015-10-31T00:29:09.401Z,8.4
2015-10-31T00:30:09.357Z,8.4
2015-10-31T00:31:09.296Z,8.4
2015-10-31T00:32:09.252Z,8.4
2015-10-31T00:33:09.192Z,8.4
2015-10-31T00:34:09.133Z,8.3
2015-10-31T00:35:09.088Z,8.3
2015-10-31T00:36:09.028Z,8.3
2015-10-31T00:37:08.985Z,8.3
2015-10-31T00:38:08.925Z,8.4
2015-10-31T00:39:08.881Z,8.4
2015-10-31T00:40:08.821Z,8.4
2015-10-31T00:41:08.777Z,8.4
2015-10-31T00:42:08.717Z,8.4
2015-10-31T00:43:08.673Z,8.4
2015-10-31T00:44:08.612Z,8.3
2015-10-31T00:45:08.584Z,8.3
2015-10-31T00:46:08.509Z,8.3
2015-10-31T00:47:08.465Z,8.3
2015-10-31T00:48:08.405Z,8.3
2015-10-31T00:49:08.345Z,8.2
2015-10-31T00:50:08.301Z,8.2
2015-10-31T00:51:08.241Z,8.2
2015-10-31T00:52:08.197Z,8.3
2015-10-31T00:53:08.137Z,8.3
2015-10-31T00:54:08.094Z,8.3
2015-10-31T00:55:08.033Z,8.3
2015-10-31T00:56:07.989Z,8.3
2015-10-31T00:57:07.944Z,8.3
2015-10-31T00:58:07.885Z,8.3
2015-10-31T00:59:07.826Z,8.3
2015-10-31T01:00:07.781Z,8.3
2015-10-31T01:01:07.721Z,8.3
2015-10-31T01:02:07.677Z,8.3
2015-10-31T01:03:07.618Z,8.4
2015-10-31T01:04:07.558Z,8.3
2015-10-31T01:05:07.514Z,8.3
2015-10-31T01:06:07.454Z,8.3
2015-10-31T01:07:07.410Z,8.3
2015-10-31T01:08:07.350Z,8.3
2015-10-31T01:09:07.303Z,8.3
2015-10-31T01:10:07.244Z,8.3
2015-10-31T01:11:07.199Z,8.3
2015-10-31T01:12:07.140Z,8.2
2015-10-31T01:13:07.080Z,8.3
2015-10-31T01:14:07.035Z,8.3
2015-10-31T01:15:06.976Z,8.2
2015-10-31T01:16:06.932Z,8.2
2015-10-31T01:17:06.871Z,8.2
2015-10-31T01:18:06.827Z,8.2
2015-10-31T01:19:06.768Z,8.2
2015-10-31T01:20:06.723Z,8.2
2015-10-31T01:21:06.665Z,8.2
2015-10-31T01:22:06.620Z,8.3
2015-10-31T01:23:06.560Z,8.3
2015-10-31T01:24:06.516Z,8.3
2015-10-31T01:25:06.457Z,8.3
2015-10-31T01:26:06.397Z,8.3
2015-10-31T01:27:06.352Z,8.4
2015-10-31T01:28:06.309Z,8.3
2015-10-31T01:29:06.249Z,8.3
2015-10-31T01:30:06.190Z,8.3
2015-10-31T01:31:06.145Z,8.3
2015-10-31T01:32:06.085Z,8.4
2015-10-31T01:33:06.041Z,8.4
2015-10-31T01:34:05.981Z,8.3
2015-10-31T01:35:05.937Z,8.3
2015-10-31T01:36:05.876Z,8.3
2015-10-31T01:37:05.818Z,8.3
2015-10-31T01:38:05.773Z,8.4
2015-10-31T01:39:05.714Z,8.4
2015-10-31T01:40:05.670Z,8.4
2015-10-31T01:41:05.609Z,8.4
2015-10-31T01:42:05.565Z,8.3
2015-10-31T01:43:05.521Z,8.3
2015-10-31T01:44:05.461Z,8.4
2015-10-31T01:45:05.401Z,8.4
2015-10-31T01:46:05.358Z,8.4
2015-10-31T01:47:05.298Z,8.3
2015-10-31T01:48:05.254Z,8.3
2015-10-31T01:49:05.194Z,8.3
2015-10-31T01:50:05.133Z,8.3
2015-10-31T01:51:05.090Z,8.3
2015-10-31T01:52:05.045Z,8.3
2015-10-31T01:53:05.002Z,8.4
2015-10-31T01:54:04.942Z,8.4
2015-10-31T01:55:04.882Z,8.4
2015-10-31T01:56:04.821Z,8.4
2015-10-31T01:57:04.777Z,8.5
2015-10-31T01:58:04.718Z,8.4
2015-10-31T01:59:04.674Z,8.4
2015-10-31T02:00:04.614Z,8.4
2015-10-31T02:01:04.569Z,8.4
2015-10-31T02:02:04.509Z,8.4
2015-10-31T02:03:04.449Z,8.3
2015-10-31T02:04:04.406Z,8.3
2015-10-31T02:05:04.345Z,8.3
2015-10-31T02:06:04.301Z,8.3
2015-10-31T02:07:04.242Z,8.3
2015-10-31T02:08:04.198Z,8.3
2015-10-31T02:09:04.138Z,8.3
2015-10-31T02:10:04.094Z,8.3
2015-10-31T02:11:04.034Z,8.3
2015-10-31T02:12:03.989Z,8.3
2015-10-31T02:13:03.930Z,8.3
2015-10-31T02:14:03.901Z,8.3
2015-10-31T02:15:03.826Z,8.3
2015-10-31T02:16:03.766Z,8.3
2015-10-31T02:17:03.715Z,8.3
2015-10-31T02:18:03.646Z,8.3
2015-10-31T02:19:03.593Z,8.3
2015-10-31T02:20:03.525Z,8.3
2015-10-31T02:21:03.472Z,8.3
2015-10-31T02:22:03.407Z,8.2
2015-10-31T02:23:03.360Z,8.2
2015-10-31T02:24:03.296Z,8.2
2015-10-31T02:25:03.233Z,8.2
2015-10-31T02:26:03.186Z,8.3
2015-10-31T02:27:03.123Z,8.2
2015-10-31T02:28:03.078Z,8.2
2015-10-31T02:29:03.018Z,8.3
2015-10-31T02:30:02.972Z,8.3
2015-10-31T02:31:02.912Z,8.3
2015-10-31T02:32:02.867Z,8.3
2015-10-31T02:33:02.807Z,8.3
2015-10-31T02:34:02.747Z,8.3
2015-10-31T02:35:02.702Z,8.3
2015-10-31T02:36:02.642Z,8.3
2015-10-31T02:37:02.597Z,8.3
2015-10-31T02:38:02.537Z,8.3
2015-10-31T02:39:02.493Z,8.3
2015-10-31T02:40:02.449Z,8.3
2015-10-31T02:41:02.374Z,8.3
2015-10-31T02:42:02.329Z,8.3
2015-10-31T02:43:02.270Z,8.4
2015-10-31T02:44:02.226Z,8.3
2015-10-31T02:45:02.165Z,8.3
2015-10-31T02:46:02.122Z,8.3
2015-10-31T02:47:02.061Z,8.3
2015-10-31T02:48:02.017Z,8.3
2015-10-31T02:49:01.958Z,8.3
2015-10-31T02:50:01.914Z,8.3
2015-10-31T02:51:01.854Z,8.4
2015-10-31T02:52:01.794Z,8.4
2015-10-31T02:53:01.750Z,8.3
2015-10-31T02:54:01.690Z,8.3
2015-10-31T02:55:01.645Z,8.3
2015-10-31T02:56:01.586Z,8.3
2015-10-31T02:57:01.541Z,8.3
2015-10-31T02:58:01.497Z,8.3
2015-10-31T02:59:01.438Z,8.4
2015-10-31T03:00:01.378Z,8.4
2015-10-31T03:01:01.333Z,8.4
2015-10-31T03:02:01.274Z,8.4
2015-10-31T03:03:01.214Z,8.4
2015-10-31T03:04:01.170Z,8.4
2015-10-31T03:05:01.110Z,8.3
2015-10-31T03:06:01.066Z,8.4
2015-10-31T03:07:01.006Z,8.4
2015-10-31T03:08:00.962Z,8.4
2015-10-31T03:09:00.902Z,8.3
2015-10-31T03:10:00.858Z,8.4
2015-10-31T03:11:00.798Z,8.4
2015-10-31T03:12:00.770Z,8.4
2015-10-31T03:13:00.694Z,8.4
2015-10-31T03:14:00.651Z,8.4
2015-10-31T03:15:00.590Z,8.4
2015-10-31T03:16:00.546Z,8.4
2015-10-31T03:17:00.486Z,8.4
2015-10-31T03:18:00.426Z,8.4
2015-10-31T03:19:00.382Z,8.4
2015-10-31T03:20:00.338Z,8.4
2015-10-31T03:21:00.262Z,8.4
2015-10-31T03:22:00.218Z,8.4
2015-10-31T03:23:00.175Z,8.4
2015-10-31T03:24:00.115Z,8.4
2015-10-31T03:25:00.055Z,8.4
2015-10-31T03:26:00.010Z,8.4
2015-10-31T03:26:59.950Z,8.4
2015-10-31T03:27:59.906Z,8.4
2015-10-31T03:28:59.847Z,8.4
2015-10-31T03:29:59.786Z,8.4
2015-10-31T03:30:59.742Z,8.4
2015-10-31T03:31:59.699Z,8.4
2015-10-31T03:32:59.639Z,8.4
2015-10-31T03:33:59.579Z,8.4
2015-10-31T03:34:59.535Z,8.4
2015-10-31T03:35:59.474Z,8.4
2015-10-31T03:36:59.431Z,8.4
2015-10-31T03:37:59.370Z,8.4
2015-10-31T03:38:59.326Z,8.5
2015-10-31T03:39:59.266Z,8.4
2015-10-31T03:40:59.207Z,8.5
2015-10-31T03:41:59.179Z,8.5
2015-10-31T03:42:59.104Z,8.5
2015-10-31T03:43:59.059Z,8.5
2015-10-31T03:44:58.999Z,8.5
2015-10-31T03:45:58.955Z,8.5
2015-10-31T03:46:58.896Z,8.5
2015-10-31T03:47:58.851Z,8.5
2015-10-31T03:48:58.790Z,8.5
2015-10-31T03:49:58.747Z,8.5
2015-10-31T03:50:58.703Z,8.5
2015-10-31T03:51:58.628Z,8.5
2015-10-31T03:52:58.599Z,8.5
2015-10-31T03:53:58.539Z,8.5
2015-10-31T03:54:58.478Z,8.4
2015-10-31T03:55:58.434Z,8.4
2015-10-31T03:56:58.375Z,8.5
2015-10-31T03:57:58.314Z,8.5
2015-10-31T03:58:58.271Z,8.5
2015-10-31T03:59:58.227Z,8.5
2015-10-31T04:00:58.167Z,8.6
2015-10-31T04:01:58.123Z,8.6
2015-10-31T04:02:58.064Z,8.5
2015-10-31T04:03:58.003Z,8.6
2015-10-31T04:04:57.959Z,8.5
2015-10-31T04:05:57.900Z,8.6
2015-10-31T04:06:57.855Z,8.5
2015-10-31T04:07:57.810Z,8.5
2015-10-31T04:08:57.751Z,8.5
2015-10-31T04:09:57.691Z,8.5
2015-10-31T04:10:57.647Z,8.5
2015-10-31T04:11:57.588Z,8.5
2015-10-31T04:12:57.543Z,8.5
2015-10-31T04:13:57.483Z,8.5
2015-10-31T04:14:57.439Z,8.5
2015-10-31T04:15:57.380Z,8.5
2015-10-31T04:16:57.335Z,8.5
2015-10-31T04:17:57.275Z,8.6
2015-10-31T04:18:57.231Z,8.6
2015-10-31T04:19:57.171Z,8.6
2015-10-31T04:20:57.112Z,8.6
2015-10-31T04:21:57.067Z,8.6
2015-10-31T04:22:57.007Z,8.6
2015-10-31T04:23:56.964Z,8.5
2015-10-31T04:24:56.904Z,8.6
2015-10-31T04:25:56.859Z,8.6
2015-10-31T04:26:56.799Z,8.5
2015-10-31T04:27:56.755Z,8.5
2015-10-31T04:28:56.695Z,8.4
2015-10-31T04:29:56.641Z,8.4
2015-10-31T04:30:56.597Z,8.4
2015-10-31T04:31:56.536Z,8.4
2015-10-31T04:32:56.492Z,8.4
2015-10-31T04:33:56.433Z,8.4
2015-10-31T04:34:56.372Z,8.4
2015-10-31T04:35:56.329Z,8.5
2015-10-31T04:36:56.268Z,8.4
2015-10-31T04:37:56.209Z,8.4
2015-10-31T04:38:56.165Z,8.4
2015-10-31T04:39:56.105Z,8.4
2015-10-31T04:40:56.060Z,8.4
2015-10-31T04:41:56.001Z,8.3
2015-10-31T04:42:55.941Z,8.3
2015-10-31T04:43:55.897Z,8.3
2015-10-31T04:44:55.838Z,8.3
2015-10-31T04:45:55.793Z,8.4
2015-10-31T04:46:55.733Z,8.4
2015-10-31T04:47:55.689Z,8.4
2015-10-31T04:48:55.629Z,8.4
2015-10-31T04:49:55.570Z,8.4
2015-10-31T04:50:55.525Z,8.4
2015-10-31T04:51:55.465Z,8.4
2015-10-31T04:52:55.420Z,8.3
2015-10-31T04:53:55.361Z,8.4
2015-10-31T04:54:55.317Z,8.3
2015-10-31T04:55:55.257Z,8.3
2015-10-31T04:56:55.197Z,8.3
2015-10-31T04:57:55.158Z,8.3
2015-10-31T04:58:55.099Z,8.3
2015-10-31T04:59:55.038Z,8.4
2015-10-31T05:00:54.994Z,8.3
2015-10-31T05:01:54.935Z,8.3
2015-10-31T05:02:54.891Z,8.3
2015-10-31T05:03:54.831Z,8.3
2015-10-31T05:04:54.771Z,8.3
2015-10-31T05:05:54.727Z,8.2
2015-10-31T05:06:54.667Z,8.1
2015-10-31T05:07:54.623Z,8.1
2015-10-31T05:08:54.562Z,8.1
2015-10-31T05:09:54.504Z,8.1
2015-10-31T05:10:54.459Z,8.1
2015-10-31T05:11:54.415Z,8.1
2015-10-31T05:12:54.355Z,8.1
2015-10-31T05:13:54.295Z,8.1
2015-10-31T05:14:54.235Z,8.1
2015-10-31T05:15:54.190Z,8.1
2015-10-31T05:16:54.131Z,8.1
2015-10-31T05:17:54.071Z,8.1
2015-10-31T05:18:54.027Z,8.1
2015-10-31T05:19:53.983Z,8.1
2015-10-31T05:20:53.923Z,8.1
2015-10-31T05:21:53.864Z,8.2
2015-10-31T05:22:53.817Z,8.2
2015-10-31T05:23:53.756Z,8.1
2015-10-31T05:24:53.712Z,8.1
2015-10-31T05:25:53.653Z,8.1
2015-10-31T05:26:53.593Z,8.1
2015-10-31T05:27:53.550Z,8
2015-10-31T05:28:53.489Z,8
2015-10-31T05:29:53.430Z,8
2015-10-31T05:30:53.370Z,7.9
2015-10-31T05:31:53.325Z,7.9
2015-10-31T05:32:53.266Z,8
2015-10-31T05:33:53.221Z,7.9
2015-10-31T05:34:53.161Z,7.9
2015-10-31T05:35:53.117Z,7.9
2015-10-31T05:36:53.058Z,7.9
2015-10-31T05:37:52.997Z,7.9
2015-10-31T05:38:52.954Z,7.9
2015-10-31T05:39:52.894Z,7.9
2015-10-31T05:40:52.850Z,7.9
2015-10-31T05:41:52.790Z,7.9
2015-10-31T05:42:52.746Z,7.9
2015-10-31T05:43:52.687Z,7.9
2015-10-31T05:44:52.627Z,7.9
2015-10-31T05:45:52.567Z,7.9
2015-10-31T05:46:52.522Z,7.8
2015-10-31T05:47:52.495Z,7.8
2015-10-31T05:48:52.419Z,7.8
2015-10-31T05:49:52.359Z,7.8
2015-10-31T05:50:52.316Z,7.8
2015-10-31T05:51:52.255Z,7.8
2015-10-31T05:52:52.227Z,7.7
2015-10-31T05:53:52.152Z,7.6
2015-10-31T05:54:52.092Z,7.6
2015-10-31T05:55:52.032Z,7.6
2015-10-31T05:56:51.988Z,7.6
2015-10-31T05:57:51.928Z,7.6
2015-10-31T05:58:51.869Z,7.6
2015-10-31T05:59:51.826Z,7.6
2015-10-31T06:00:51.766Z,7.6
2015-10-31T06:01:51.722Z,7.6
2015-10-31T06:02:51.662Z,7.6
2015-10-31T06:03:51.602Z,7.6
2015-10-31T06:04:51.558Z,7.6
2015-10-31T06:05:51.497Z,7.6
2015-10-31T06:06:51.453Z,7.6
2015-10-31T06:07:51.394Z,7.6
2015-10-31T06:08:51.331Z,7.6
2015-10-31T06:09:51.288Z,7.6
2015-10-31T06:10:51.228Z,7.6
2015-10-31T06:11:51.184Z,7.6
2015-10-31T06:12:51.124Z,7.6
2015-10-31T06:13:51.063Z,7.5
2015-10-31T06:14:51.019Z,7.5
2015-10-31T06:15:50.960Z,7.5
2015-10-31T06:16:50.916Z,7.4
2015-10-31T06:17:50.855Z,7.4
2015-10-31T06:18:50.796Z,7.3
2015-10-31T06:20:50.693Z,7.2
2015-10-31T06:21:50.632Z,7.2
2015-10-31T06:22:50.573Z,7.2
2015-10-31T06:23:50.528Z,7.2
2015-10-31T06:24:50.469Z,7.2
2015-10-31T06:25:50.409Z,7.1
2015-10-31T06:26:50.365Z,7.1
2015-10-31T06:27:50.305Z,7.1
2015-10-31T06:28:50.245Z,7
2015-10-31T06:29:50.201Z,7
2015-10-31T06:30:50.141Z,6.9
2015-10-31T06:31:50.082Z,6.9
2015-10-31T06:32:50.038Z,6.9
2015-10-31T06:33:49.979Z,6.9
2015-10-31T06:34:49.918Z,6.8
2015-10-31T06:35:49.874Z,6.8
2015-10-31T06:36:49.830Z,6.7
2015-10-31T06:37:49.755Z,6.8
2015-10-31T06:38:49.710Z,6.9
2015-10-31T06:39:49.651Z,6.9
2015-10-31T06:40:49.591Z,6.9
2015-10-31T06:41:49.546Z,6.9
2015-10-31T06:42:49.487Z,6.8
2015-10-31T06:43:49.442Z,6.9
2015-10-31T06:44:49.367Z,6.9
2015-10-31T06:45:49.323Z,6.8
2015-10-31T06:46:49.264Z,6.8
2015-10-31T06:47:49.203Z,6.8
2015-10-31T06:48:49.159Z,6.9
2015-10-31T06:49:49.100Z,6.9
2015-10-31T06:50:49.055Z,6.9
2015-10-31T06:51:48.995Z,6.9
2015-10-31T06:52:48.936Z,6.8
2015-10-31T06:53:48.892Z,6.8
2015-10-31T06:54:48.831Z,6.8
2015-10-31T06:55:48.771Z,6.8
2015-10-31T06:56:48.712Z,6.8
2015-10-31T06:57:48.668Z,6.8
2015-10-31T06:58:48.608Z,6.8
2015-10-31T06:59:48.564Z,6.8
2015-10-31T07:00:48.504Z,6.8
2015-10-31T07:01:48.444Z,6.8
2015-10-31T07:02:48.399Z,6.9
2015-10-31T07:03:48.341Z,6.9
2015-10-31T07:04:48.280Z,6.8
2015-10-31T07:05:48.236Z,6.8
2015-10-31T07:06:48.177Z,6.8
2015-10-31T07:07:48.116Z,6.8
2015-10-31T07:08:48.073Z,6.8
2015-10-31T07:09:48.012Z,6.8
2015-10-31T07:10:47.953Z,6.8
2015-10-31T07:11:47.909Z,6.9
2015-10-31T07:12:47.849Z,6.9
2015-10-31T07:13:47.790Z,6.9
2015-10-31T07:14:47.745Z,6.9
2015-10-31T07:15:47.685Z,6.9
2015-10-31T07:16:47.626Z,6.9
2015-10-31T07:17:47.582Z,6.9
2015-10-31T07:18:47.521Z,6.9
2015-10-31T07:19:47.462Z,6.9
2015-10-31T07:20:47.417Z,6.9
2015-10-31T07:21:47.358Z,6.9
2015-10-31T07:22:47.298Z,6.9
2015-10-31T07:23:47.270Z,6.9
2015-10-31T07:24:47.209Z,6.9
2015-10-31T07:25:47.150Z,6.9
2015-10-31T07:26:47.090Z,6.9
2015-10-31T07:27:47.030Z,6.9
2015-10-31T07:28:46.986Z,7
2015-10-31T07:29:46.926Z,6.9
2015-10-31T07:30:46.866Z,7
2015-10-31T07:31:46.822Z,7
2015-10-31T07:32:46.763Z,7
2015-10-31T07:33:46.703Z,7
2015-10-31T07:34:46.658Z,7
2015-10-31T07:35:46.614Z,7
2015-10-31T07:36:46.539Z,7
2015-10-31T07:37:46.494Z,7
2015-10-31T07:38:46.435Z,7
2015-10-31T07:39:46.391Z,7
2015-10-31T07:40:46.330Z,7
2015-10-31T07:41:46.287Z,7
2015-10-31T07:42:46.226Z,6.9
2015-10-31T07:43:46.182Z,6.9
2015-10-31T07:44:46.123Z,6.9
2015-10-31T07:45:46.063Z,6.9
2015-10-31T07:46:46.003Z,6.9
2015-10-31T07:47:45.943Z,6.9
2015-10-31T07:48:45.899Z,6.9
2015-10-31T07:49:45.839Z,6.9
2015-10-31T07:50:45.779Z,6.8
2015-10-31T07:51:45.735Z,6.8
2015-10-31T07:52:45.676Z,6.8
2015-10-31T07:53:45.615Z,6.8
2015-10-31T07:54:45.556Z,6.9
2015-10-31T07:55:45.511Z,6.8
2015-10-31T07:56:45.452Z,6.8
2015-10-31T07:57:45.392Z,6.8
2015-10-31T07:58:45.347Z,6.8
2015-10-31T07:59:45.288Z,6.8
2015-10-31T08:00:45.228Z,6.8
2015-10-31T08:01:45.183Z,6.8
2015-10-31T08:02:45.124Z,6.8
2015-10-31T08:03:45.064Z,6.8
2015-10-31T08:04:45.005Z,6.8
2015-10-31T08:05:44.961Z,6.8
2015-10-31T08:06:44.900Z,6.8
2015-10-31T08:07:44.841Z,6.8
2015-10-31T08:08:44.796Z,6.8
2015-10-31T08:09:44.737Z,6.8
2015-10-31T08:10:44.677Z,6.8
2015-10-31T08:11:44.633Z,6.8
2015-10-31T08:12:44.573Z,6.8
2015-10-31T08:13:44.513Z,6.8
2015-10-31T08:14:44.469Z,6.8
2015-10-31T08:15:44.409Z,6.9
2015-10-31T08:16:44.349Z,6.9
2015-10-31T08:17:44.305Z,6.9
2015-10-31T08:18:44.245Z,6.9
2015-10-31T08:19:44.185Z,6.9
2015-10-31T08:20:44.126Z,6.9
2015-10-31T08:21:44.081Z,6.9
2015-10-31T08:22:44.022Z,6.9
2015-10-31T08:23:43.977Z,6.9
2015-10-31T08:24:43.918Z,6.9
2015-10-31T08:25:43.858Z,6.9
2015-10-31T08:26:43.798Z,6.9
2015-10-31T08:27:43.753Z,6.9
2015-10-31T08:28:43.694Z,6.9
2015-10-31T08:29:43.634Z,6.9
2015-10-31T08:30:43.590Z,6.9
2015-10-31T08:31:43.531Z,6.9
2015-10-31T08:32:43.470Z,6.9
2015-10-31T08:33:43.411Z,7
2015-10-31T08:34:43.367Z,7
2015-10-31T08:35:43.307Z,7
2015-10-31T08:36:43.263Z,7
2015-10-31T08:37:43.203Z,7.1
2015-10-31T08:38:43.143Z,7.1
2015-10-31T08:39:43.083Z,7.1
2015-10-31T08:40:43.039Z,7
2015-10-31T08:41:42.979Z,7.1
2015-10-31T08:42:42.919Z,7.1
2015-10-31T08:43:42.875Z,7.1
2015-10-31T08:44:42.815Z,7.1
2015-10-31T08:45:42.755Z,7.1
2015-10-31T08:46:42.696Z,7.1
2015-10-31T08:47:42.652Z,7.1
2015-10-31T08:48:42.607Z,7.1
2015-10-31T08:49:42.547Z,7.1
2015-10-31T08:50:42.487Z,7.1
2015-10-31T08:51:42.428Z,7.1
2015-10-31T08:52:42.368Z,7.2
2015-10-31T08:53:42.324Z,7.2
2015-10-31T08:54:42.264Z,7.2
2015-10-31T08:55:42.220Z,7.2
2015-10-31T08:56:42.160Z,7.2
2015-10-31T08:57:42.100Z,7.2
2015-10-31T08:58:42.040Z,7.3
2015-10-31T08:59:41.996Z,7.2
2015-10-31T09:00:41.983Z,7.3
2015-10-31T09:01:41.892Z,7.3
2015-10-31T09:02:41.832Z,7.3
2015-10-31T09:03:41.772Z,7.4
2015-10-31T09:04:41.713Z,7.4
2015-10-31T09:05:41.669Z,7.3
2015-10-31T09:06:41.609Z,7.3
2015-10-31T09:07:41.564Z,7.4
2015-10-31T09:08:41.505Z,7.3
2015-10-31T09:09:41.444Z,7.4
2015-10-31T09:10:41.385Z,7.4
2015-10-31T09:11:41.341Z,7.5
2015-10-31T09:12:41.282Z,7.5
2015-10-31T09:13:41.221Z,7.6
2015-10-31T09:14:41.177Z,7.5
2015-10-31T09:15:41.117Z,7.6
2015-10-31T09:16:41.074Z,7.6
2015-10-31T09:17:41.013Z,7.6
2015-10-31T09:18:40.954Z,7.6
2015-10-31T09:19:40.910Z,7.6
2015-10-31T09:20:40.849Z,7.6
2015-10-31T09:21:40.790Z,7.6
2015-10-31T09:22:40.730Z,7.6
2015-10-31T09:23:40.687Z,7.6
2015-10-31T09:24:40.626Z,7.6
2015-10-31T09:25:40.582Z,7.6
2015-10-31T09:26:40.523Z,7.6
2015-10-31T09:27:40.462Z,7.6
2015-10-31T09:28:40.418Z,7.5
2015-10-31T09:29:40.359Z,7.5
2015-10-31T09:30:40.299Z,7.6
2015-10-31T09:31:40.254Z,7.6
2015-10-31T09:32:40.195Z,7.7
2015-10-31T09:33:40.151Z,7.7
2015-10-31T09:34:40.075Z,7.7
2015-10-31T09:35:40.031Z,7.6
2015-10-31T09:36:39.971Z,7.7
2015-10-31T09:37:39.912Z,7.7
2015-10-31T09:38:39.867Z,7.7
2015-10-31T09:39:39.808Z,7.8
2015-10-31T09:40:39.764Z,7.8
2015-10-31T09:41:39.719Z,7.8
2015-10-31T09:42:39.644Z,7.9
2015-10-31T09:43:39.600Z,7.9
2015-10-31T09:44:39.540Z,7.8
2015-10-31T09:45:39.481Z,7.8
2015-10-31T09:46:39.436Z,7.8
2015-10-31T09:47:39.392Z,7.8
2015-10-31T09:48:39.317Z,7.9
2015-10-31T09:49:39.272Z,7.9
2015-10-31T09:50:39.213Z,7.8
2015-10-31T09:51:39.153Z,7.8
2015-10-31T09:52:39.108Z,7.8
2015-10-31T09:53:39.049Z,7.8
2015-10-31T09:54:39.005Z,7.8
2015-10-31T09:55:38.942Z,7.8
2015-10-31T09:56:38.883Z,7.8
2015-10-31T09:57:38.821Z,7.9
2015-10-31T09:58:38.796Z,7.9
2015-10-31T09:59:38.721Z,8
2015-10-31T10:00:38.661Z,8
2015-10-31T10:01:38.617Z,8
2015-10-31T10:02:38.573Z,7.9
2015-10-31T10:03:38.513Z,7.9
2015-10-31T10:04:38.454Z,7.9
2015-10-31T10:05:38.393Z,7.9
2015-10-31T10:06:38.333Z,8
2015-10-31T10:07:38.290Z,7.9
2015-10-31T10:08:38.245Z,8
2015-10-31T10:09:38.170Z,8
2015-10-31T10:10:38.141Z,8
2015-10-31T10:11:38.066Z,8.1
2015-10-31T10:12:38.022Z,8.1
2015-10-31T10:13:37.961Z,8
2015-10-31T10:14:37.903Z,8.1
2015-10-31T10:15:37.843Z,8
2015-10-31T10:16:37.798Z,8
2015-10-31T10:17:37.754Z,8
2015-10-31T10:18:37.694Z,8
2015-10-31T10:19:37.634Z,8
2015-10-31T10:20:37.590Z,8
2015-10-31T10:21:37.530Z,8.1
2015-10-31T10:22:37.470Z,8.1
2015-10-31T10:23:37.427Z,8.1
2015-10-31T10:24:37.367Z,8.1
2015-10-31T10:25:37.308Z,8
2015-10-31T10:26:37.263Z,8
2015-10-31T10:27:37.188Z,8
2015-10-31T10:28:37.159Z,8
2015-10-31T10:29:37.099Z,8
2015-10-31T10:30:37.039Z,8
2015-10-31T10:31:36.980Z,8.1
2015-10-31T10:32:36.919Z,8.1
2015-10-31T10:33:36.875Z,8.1
2015-10-31T10:34:36.816Z,8.1
2015-10-31T10:35:36.788Z,8.2
2015-10-31T10:36:36.713Z,8.2
2015-10-31T10:37:36.668Z,8.2
2015-10-31T10:38:36.608Z,8.2
2015-10-31T10:39:36.548Z,8.2
2015-10-31T10:40:36.488Z,8.2
2015-10-31T10:41:36.429Z,8.2
2015-10-31T10:42:36.384Z,8.2
2015-10-31T10:43:36.324Z,8.3
2015-10-31T10:44:36.280Z,8.3
2015-10-31T10:45:36.236Z,8.4
2015-10-31T10:46:36.176Z,8.4
2015-10-31T10:47:36.117Z,8.5
2015-10-31T10:48:36.057Z,8.5
2015-10-31T10:49:36.012Z,8.5
2015-10-31T10:50:35.953Z,8.4
2015-10-31T10:51:35.892Z,8.4
2015-10-31T10:52:35.849Z,8.5
2015-10-31T10:53:35.789Z,8.5
2015-10-31T10:54:35.728Z,8.6
2015-10-31T10:55:35.685Z,8.7
2015-10-31T10:56:35.625Z,8.9
2015-10-31T10:57:35.564Z,9.1
2015-10-31T10:58:35.522Z,9.3
2015-10-31T10:59:35.461Z,9.4
2015-10-31T11:00:35.417Z,9.5
2015-10-31T11:01:35.358Z,9.5
2015-10-31T11:02:35.313Z,9.5
2015-10-31T11:03:35.253Z,9.5
2015-10-31T11:04:35.194Z,9.5
2015-10-31T11:05:35.149Z,9.4
2015-10-31T11:06:35.089Z,9.5
2015-10-31T11:07:35.045Z,9.6
2015-10-31T11:08:34.985Z,9.6
2015-10-31T11:09:34.941Z,9.7
2015-10-31T11:10:34.882Z,9.9
2015-10-31T11:11:34.821Z,10
2015-10-31T11:12:34.777Z,9.9
2015-10-31T11:13:34.718Z,10.1
2015-10-31T11:14:34.673Z,10
2015-10-31T11:15:34.613Z,10
2015-10-31T11:16:34.554Z,10.1
2015-10-31T11:17:34.510Z,10.2
2015-10-31T11:18:34.451Z,10.2
2015-10-31T11:19:34.406Z,10.3
2015-10-31T11:20:34.346Z,10.4
2015-10-31T11:21:34.302Z,10.5
2015-10-31T11:22:34.240Z,10.4
2015-10-31T11:23:34.180Z,10.5
2015-10-31T11:24:34.119Z,10.6
2015-10-31T11:25:34.042Z,10.7
2015-10-31T11:26:33.966Z,10.6
2015-10-31T11:27:33.906Z,10.6
2015-10-31T11:28:33.841Z,10.6
2015-10-31T11:29:33.790Z,10.8
2015-10-31T11:30:33.724Z,10.8
2015-10-31T11:31:33.673Z,10.7
2015-10-31T11:32:33.609Z,10.5
2015-10-31T11:33:33.546Z,10.5
2015-10-31T11:34:33.517Z,10.6
2015-10-31T11:35:33.439Z,10.5
2015-10-31T11:36:33.392Z,10.6
2015-10-31T11:37:33.332Z,10.6
2015-10-31T11:38:33.287Z,10.7
2015-10-31T11:39:33.226Z,10.8
2015-10-31T11:40:33.166Z,10.8
2015-10-31T11:41:33.121Z,10.8
2015-10-31T11:42:33.060Z,10.8
2015-10-31T11:43:33.016Z,10.8
2015-10-31T11:44:32.956Z,10.8
2015-10-31T11:45:32.911Z,10.8
2015-10-31T11:46:32.849Z,10.8
2015-10-31T11:47:32.805Z,10.8
2015-10-31T11:48:32.744Z,10.8
2015-10-31T11:49:32.700Z,10.9
2015-10-31T11:50:32.641Z,10.8
2015-10-31T11:51:32.595Z,10.8
2015-10-31T11:52:32.536Z,10.8
2015-10-31T11:53:32.492Z,10.8
2015-10-31T11:54:32.432Z,10.8
2015-10-31T11:55:32.373Z,10.9
2015-10-31T11:56:32.328Z,10.9
2015-10-31T11:57:32.284Z,11
2015-10-31T11:58:32.224Z,11
2015-10-31T11:59:32.164Z,11.1
2015-10-31T12:00:32.121Z,11.2
2015-10-31T12:01:32.062Z,11.3
2015-10-31T12:02:32.017Z,11.2
2015-10-31T12:03:31.957Z,11.1
2015-10-31T12:04:31.912Z,11.1
2015-10-31T12:05:31.853Z,11.2
2015-10-31T12:06:31.809Z,11.3
2015-10-31T12:07:31.765Z,11.4
2015-10-31T12:08:31.705Z,11.4
2015-10-31T12:09:31.645Z,11.6
2015-10-31T12:10:31.600Z,11.7
2015-10-31T12:11:31.556Z,11.7
2015-10-31T12:12:31.497Z,11.7
2015-10-31T12:13:31.437Z,11.8
2015-10-31T12:14:31.392Z,11.8
2015-10-31T12:15:31.349Z,11.8
2015-10-31T12:16:31.289Z,11.8
2015-10-31T12:17:31.244Z,11.7
2015-10-31T12:18:31.185Z,11.8
2015-10-31T12:19:31.141Z,11.8
2015-10-31T12:20:31.080Z,11.8
2015-10-31T12:21:31.036Z,11.7
2015-10-31T12:22:30.977Z,11.8
2015-10-31T12:23:30.932Z,11.7
2015-10-31T12:24:30.873Z,11.8
2015-10-31T12:25:30.829Z,11.9
2015-10-31T12:26:30.785Z,11.9
2015-10-31T12:27:30.724Z,11.9
2015-10-31T12:28:30.680Z,11.9
2015-10-31T12:29:30.621Z,12
2015-10-31T12:30:30.560Z,12
2015-10-31T12:31:30.517Z,12.1
2015-10-31T12:32:30.473Z,12.1
2015-10-31T12:33:30.412Z,12.2
2015-10-31T12:34:30.368Z,12.1
2015-10-31T12:35:30.324Z,11.9
2015-10-31T12:36:30.264Z,11.9
2015-10-31T12:37:30.221Z,12
2015-10-31T12:38:30.161Z,12.1
2015-10-31T12:39:30.117Z,12.2
2015-10-31T12:40:30.057Z,12.2
2015-10-31T12:41:30.012Z,12.2
2015-10-31T12:42:29.953Z,12.3
2015-10-31T12:43:29.909Z,12.4
2015-10-31T12:44:29.849Z,12.5
2015-10-31T12:45:29.806Z,12.6
2015-10-31T12:46:29.745Z,12.7
2015-10-31T12:47:29.701Z,12.8
2015-10-31T12:48:29.642Z,12.9
2015-10-31T12:49:29.598Z,12.9
2015-10-31T12:50:29.553Z,13.1
2015-10-31T12:51:29.492Z,13.4
2015-10-31T12:52:29.449Z,13.6
2015-10-31T12:53:29.389Z,13.7
2015-10-31T12:54:29.345Z,13.6
2015-10-31T12:55:29.300Z,13.8
2015-10-31T12:56:29.242Z,14.1
2015-10-31T12:57:29.198Z,14.4
2015-10-31T12:58:29.137Z,14.4
2015-10-31T12:59:29.093Z,14.4
2015-10-31T13:00:29.034Z,14.8
2015-10-31T13:01:28.989Z,15
2015-10-31T13:02:28.945Z,15.1
2015-10-31T13:03:28.901Z,15.2
2015-10-31T13:04:28.841Z,15.1
2015-10-31T13:05:28.780Z,15.3
2015-10-31T13:06:28.738Z,15.4
2015-10-31T13:07:28.693Z,15.1
2015-10-31T13:08:28.649Z,14.7
2015-10-31T13:09:28.589Z,14.6
2015-10-31T13:10:28.544Z,14.8
2015-10-31T13:11:28.485Z,14.8
2015-10-31T13:12:28.441Z,14.7
2015-10-31T13:13:28.397Z,14.8
2015-10-31T13:14:28.337Z,15
2015-10-31T13:15:28.293Z,15.3
2015-10-31T13:16:28.233Z,15.4
2015-10-31T13:17:28.188Z,15.3
2015-10-31T13:18:28.145Z,14.9
2015-10-31T13:19:28.084Z,14.8
2015-10-31T13:20:28.040Z,14.7
2015-10-31T13:21:27.998Z,14.8
2015-10-31T13:22:27.978Z,14.8
2015-10-31T13:23:27.887Z,14.7
2015-10-31T13:24:27.859Z,14.6
2015-10-31T13:25:27.783Z,14.4
2015-10-31T13:26:27.739Z,14.6
2015-10-31T13:27:27.695Z,14.4
2015-10-31T13:28:27.635Z,14.4
2015-10-31T13:29:27.592Z,14.6
2015-10-31T13:30:27.531Z,14.8
2015-10-31T13:31:27.487Z,14.8
2015-10-31T13:32:27.442Z,14.8
2015-10-31T13:33:27.383Z,14.8
2015-10-31T13:34:27.338Z,14.8
2015-10-31T13:35:27.279Z,15.1
2015-10-31T13:36:27.235Z,15.3
2015-10-31T13:37:27.190Z,15.5
2015-10-31T13:38:27.146Z,15.7
2015-10-31T13:39:27.102Z,15.9
2015-10-31T13:40:27.042Z,16.1
2015-10-31T13:41:26.999Z,16.1
2015-10-31T13:42:26.938Z,16
2015-10-31T13:43:26.910Z,15.7
2015-10-31T13:44:26.850Z,15.6